Time;durP1;ratioP1;P1;durP2;ratioP2;P2;SDS_P1;SDS_P2;PMS_P1;PMS_P2;Temp;Humidity;BMP_temperature;BMP_pressure;BME280_temperature;BME280_humidity;BME280_pressure;Samples;Min_cycle;Max_cycle;Signal;HPM_P1;HPM_P2
2021/10/25 00:01:18;;;;;;;14.75;3.85;;;12.30;99.90;;;;;;5083769;28;20131;-60
2021/10/25 00:03:45;;;;;;;16.27;3.53;;;12.20;99.90;;;;;;5081801;28;20114;-60
2021/10/25 00:06:12;;;;;;;10.77;3.28;;;12.20;99.90;;;;;;5083674;28;20289;-59
2021/10/25 00:08:40;;;;;;;18.13;4.82;;;12.30;99.90;;;;;;5083354;28;20071;-60
2021/10/25 00:11:06;;;;;;;13.32;3.38;;;12.20;99.90;;;;;;5081062;28;20071;-59
2021/10/25 00:13:33;;;;;;;14.88;4.55;;;12.20;99.90;;;;;;5082212;28;20075;-60
2021/10/25 00:16:01;;;;;;;17.05;4.50;;;12.20;99.90;;;;;;5083914;28;20536;-59
2021/10/25 00:18:28;;;;;;;12.98;3.15;;;12.20;99.90;;;;;;5078402;28;20081;-59
2021/10/25 00:20:55;;;;;;;12.95;2.80;;;12.30;99.90;;;;;;5083404;28;20123;-59
2021/10/25 00:23:22;;;;;;;13.68;3.97;;;12.40;99.90;;;;;;5080405;28;20455;-60
2021/10/25 00:25:51;;;;;;;12.73;2.67;;;12.40;99.90;;;;;;5080470;28;20127;-59
2021/10/25 00:28:18;;;;;;;15.55;3.08;;;12.40;99.90;;;;;;5076434;28;20577;-58
2021/10/25 00:30:44;;;;;;;16.48;3.35;;;12.30;99.90;;;;;;5082860;28;20095;-59
2021/10/25 00:33:14;;;;;;;12.25;4.00;;;12.40;99.90;;;;;;5078402;28;20186;-59
2021/10/25 00:35:41;;;;;;;12.23;3.63;;;12.30;99.90;;;;;;5079932;28;20058;-59
2021/10/25 00:38:08;;;;;;;12.80;5.22;;;12.30;99.90;;;;;;5083309;28;20048;-59
2021/10/25 00:40:34;;;;;;;13.75;3.75;;;12.30;99.90;;;;;;5082279;28;20076;-59
2021/10/25 00:43:01;;;;;;;14.45;3.47;;;12.30;99.90;;;;;;5082818;28;20124;-59
2021/10/25 00:45:28;;;;;;;24.50;5.78;;;12.30;99.90;;;;;;5082921;28;20163;-59
2021/10/25 00:47:57;;;;;;;21.73;4.60;;;12.30;99.90;;;;;;5078457;28;20138;-59
2021/10/25 00:50:24;;;;;;;18.60;4.38;;;12.30;99.90;;;;;;5083016;28;20052;-59
2021/10/25 00:52:51;;;;;;;15.50;5.03;;;12.20;99.90;;;;;;5082617;28;20158;-59
2021/10/25 00:55:18;;;;;;;19.00;4.65;;;12.20;99.90;;;;;;5081762;28;20123;-59
2021/10/25 00:57:47;;;;;;;18.27;4.00;;;12.20;99.90;;;;;;5083708;28;20073;-59
2021/10/25 01:00:14;;;;;;;21.55;4.88;;;12.10;99.90;;;;;;5081932;28;20075;-59
2021/10/25 01:02:41;;;;;;;16.98;4.47;;;12.10;99.90;;;;;;5080050;28;20511;-58
2021/10/25 01:05:08;;;;;;;22.25;4.22;;;12.10;99.90;;;;;;5074687;28;20086;-59
2021/10/25 01:07:37;;;;;;;14.68;4.47;;;12.10;99.90;;;;;;5080770;28;20361;-59
2021/10/25 01:10:04;;;;;;;21.98;4.57;;;12.00;99.90;;;;;;5079186;28;20098;-59
2021/10/25 01:12:34;;;;;;;18.63;4.65;;;12.00;99.90;;;;;;5085637;28;20048;-58
2021/10/25 01:15:03;;;;;;;15.45;3.75;;;11.90;99.90;;;;;;5067863;28;20183;-59
2021/10/25 01:17:30;;;;;;;21.13;4.68;;;11.90;99.90;;;;;;5085660;28;20083;-59
2021/10/25 01:19:59;;;;;;;17.58;4.38;;;11.90;99.90;;;;;;5082531;28;20491;-59
2021/10/25 01:22:26;;;;;;;20.52;3.70;;;11.80;99.90;;;;;;5084810;28;20085;-59
2021/10/25 01:24:53;;;;;;;16.73;4.65;;;11.90;99.90;;;;;;5085995;28;20376;-59
2021/10/25 01:27:20;;;;;;;18.92;3.75;;;11.80;99.90;;;;;;5086108;28;20833;-59
2021/10/25 01:29:47;;;;;;;13.90;3.88;;;11.80;99.90;;;;;;5085674;28;20387;-59
2021/10/25 01:32:14;;;;;;;13.35;4.65;;;11.80;99.90;;;;;;5087174;28;20135;-59
2021/10/25 01:34:41;;;;;;;21.38;3.80;;;11.80;99.90;;;;;;5088037;28;20082;-59
2021/10/25 01:37:08;;;;;;;16.60;3.80;;;11.80;99.90;;;;;;5087766;28;20063;-60
2021/10/25 01:39:36;;;;;;;15.18;4.28;;;11.80;99.90;;;;;;5084120;28;20602;-59
2021/10/25 01:42:03;;;;;;;24.52;5.13;;;11.70;99.90;;;;;;5087604;28;20590;-59
2021/10/25 01:44:30;;;;;;;19.05;3.97;;;11.70;99.90;;;;;;5086724;28;20097;-59
2021/10/25 01:46:56;;;;;;;16.58;3.47;;;11.70;99.90;;;;;;5085080;28;20641;-59
2021/10/25 01:49:23;;;;;;;25.38;4.43;;;11.70;99.90;;;;;;5086355;28;20556;-59
2021/10/25 01:51:50;;;;;;;11.23;3.85;;;11.70;99.90;;;;;;5084660;28;20075;-59
2021/10/25 01:54:17;;;;;;;25.70;4.47;;;11.70;99.90;;;;;;5085916;28;20079;-59
2021/10/25 01:56:44;;;;;;;15.30;4.30;;;11.70;99.90;;;;;;5047686;28;20087;-59
2021/10/25 01:59:11;;;;;;;22.98;4.95;;;11.60;99.90;;;;;;5085160;28;20466;-59
2021/10/25 02:01:37;;;;;;;16.92;4.28;;;11.60;99.90;;;;;;5085932;28;20079;-59
2021/10/25 02:04:05;;;;;;;15.15;4.40;;;11.60;99.90;;;;;;5085326;28;20044;-59
2021/10/25 02:06:33;;;;;;;16.05;4.47;;;11.60;99.90;;;;;;5086402;28;20083;-58
2021/10/25 02:09:00;;;;;;;13.77;4.25;;;11.60;99.90;;;;;;5084772;28;20055;-58
2021/10/25 02:11:27;;;;;;;14.25;3.45;;;11.50;99.90;;;;;;5086158;28;20071;-59
2021/10/25 02:13:56;;;;;;;21.70;5.85;;;11.50;99.90;;;;;;5084216;28;20123;-59
2021/10/25 02:16:23;;;;;;;14.32;3.55;;;11.50;99.90;;;;;;5084666;28;20325;-58
2021/10/25 02:18:50;;;;;;;18.90;4.93;;;11.50;99.90;;;;;;5084738;28;20048;-60
2021/10/25 02:21:17;;;;;;;18.48;4.13;;;11.50;99.90;;;;;;5086440;28;20051;-59
2021/10/25 02:23:44;;;;;;;19.33;6.13;;;11.50;99.90;;;;;;5085212;28;20126;-59
2021/10/25 02:26:11;;;;;;;20.27;5.25;;;11.40;99.90;;;;;;5086413;28;20074;-59
2021/10/25 02:28:38;;;;;;;17.20;4.40;;;11.30;99.90;;;;;;5084514;28;20048;-59
2021/10/25 02:31:05;;;;;;;14.20;4.05;;;11.30;99.90;;;;;;5085774;28;20048;-59
2021/10/25 02:33:32;;;;;;;14.13;4.13;;;11.20;99.90;;;;;;5084972;28;20052;-59
2021/10/25 02:35:59;;;;;;;16.23;3.55;;;11.20;99.90;;;;;;5082264;28;20040;-60
2021/10/25 02:38:26;;;;;;;17.50;4.65;;;11.10;99.90;;;;;;5085412;28;20139;-59
2021/10/25 02:40:53;;;;;;;14.25;3.80;;;11.10;99.90;;;;;;5085952;28;20048;-59
2021/10/25 02:43:20;;;;;;;11.32;4.07;;;11.00;99.90;;;;;;5084030;28;20091;-59
2021/10/25 02:45:47;;;;;;;9.55;2.90;;;10.90;99.90;;;;;;5085659;28;20060;-59
2021/10/25 02:48:14;;;;;;;15.18;3.83;;;10.80;99.90;;;;;;5084852;28;20055;-59
2021/10/25 02:50:46;;;;;;;11.73;3.40;;;10.80;99.90;;;;;;5084088;28;20067;-59
2021/10/25 02:53:15;;;;;;;15.02;3.33;;;10.70;99.90;;;;;;5085233;28;20135;-60
2021/10/25 02:55:42;;;;;;;16.95;3.47;;;10.70;99.90;;;;;;5084152;28;20144;-59
2021/10/25 02:58:09;;;;;;;12.52;3.70;;;10.70;99.90;;;;;;5085018;28;20165;-59
2021/10/25 03:00:35;;;;;;;16.98;3.67;;;10.70;99.90;;;;;;5084753;28;20130;-59
2021/10/25 03:03:02;;;;;;;13.55;4.32;;;10.70;99.90;;;;;;5082262;28;20040;-59
2021/10/25 03:05:29;;;;;;;23.20;4.13;;;10.70;99.90;;;;;;5084769;28;20131;-59
2021/10/25 03:07:56;;;;;;;11.27;4.03;;;10.70;99.90;;;;;;5081261;28;20082;-60
2021/10/25 03:10:23;;;;;;;14.48;4.55;;;10.70;99.90;;;;;;5084946;28;20072;-61
2021/10/25 03:12:50;;;;;;;22.00;5.15;;;10.70;99.90;;;;;;5085168;28;20136;-59
2021/10/25 03:15:17;;;;;;;22.90;6.20;;;10.70;99.90;;;;;;5084346;28;20036;-59
2021/10/25 03:17:44;;;;;;;25.75;5.35;;;10.80;99.90;;;;;;5083773;28;20087;-59
2021/10/25 03:20:12;;;;;;;26.27;5.47;;;10.90;99.90;;;;;;5084959;28;20068;-59
2021/10/25 03:22:40;;;;;;;22.20;4.97;;;10.90;99.90;;;;;;5085192;28;20173;-59
2021/10/25 03:25:07;;;;;;;20.95;5.40;;;10.90;99.90;;;;;;5067079;28;20559;-59
2021/10/25 03:27:34;;;;;;;23.50;4.93;;;11.00;99.90;;;;;;5080976;28;20905;-59
2021/10/25 03:30:01;;;;;;;18.50;4.10;;;10.90;99.90;;;;;;5083491;28;20139;-59
2021/10/25 03:32:28;;;;;;;22.13;4.47;;;10.90;99.90;;;;;;5084145;28;20746;-59
2021/10/25 03:34:55;;;;;;;24.10;4.90;;;11.00;99.90;;;;;;5083999;28;20548;-59
2021/10/25 03:37:22;;;;;;;17.98;4.88;;;11.00;99.90;;;;;;5084988;28;20090;-59
2021/10/25 03:39:51;;;;;;;25.83;6.50;;;11.10;99.90;;;;;;5084649;28;20123;-59
2021/10/25 03:42:26;;;;;;;20.92;4.55;;;11.10;99.90;;;;;;5084708;28;20127;-59
2021/10/25 03:45:20;;;;;;;31.40;5.43;;;11.10;99.90;;;;;;5082471;28;20126;-59
2021/10/25 03:47:47;;;;;;;20.70;4.28;;;11.20;99.90;;;;;;5083106;28;20048;-59
2021/10/25 03:50:18;;;;;;;19.67;4.68;;;11.20;99.90;;;;;;5083217;28;20163;-59
2021/10/25 03:58:32;;;;;;;18.75;4.53;;;11.20;99.90;;;;;;5066847;28;20162;-59
2021/10/25 04:01:09;;;;;;;21.00;4.22;;;11.10;99.90;;;;;;5084448;28;20083;-60
2021/10/25 04:04:00;;;;;;;16.83;4.88;;;11.10;99.90;;;;;;5083005;28;20050;-60
2021/10/25 04:25:22;;;;;;;21.08;5.68;;;11.00;99.90;;;;;;5083412;28;20138;-59
2021/10/25 04:28:35;;;;;;;13.60;4.25;;;11.10;99.90;;;;;;5079074;28;20131;-59
2021/10/25 04:31:02;;;;;;;19.30;5.43;;;11.20;99.90;;;;;;5085701;28;20068;-59
2021/10/25 04:33:29;;;;;;;25.25;5.45;;;11.20;99.90;;;;;;5085586;28;20044;-59
2021/10/25 04:35:56;;;;;;;25.05;6.60;;;11.20;99.90;;;;;;5086115;28;20073;-59
2021/10/25 04:38:23;;;;;;;25.10;4.47;;;11.20;99.90;;;;;;5085313;28;20067;-59
2021/10/25 04:40:50;;;;;;;21.60;4.10;;;11.20;99.90;;;;;;5086242;28;20479;-59
2021/10/25 04:43:17;;;;;;;18.95;4.80;;;11.20;99.90;;;;;;5084255;28;20698;-59
2021/10/25 04:45:44;;;;;;;21.25;6.32;;;11.20;99.90;;;;;;5085637;28;20071;-59
2021/10/25 04:48:10;;;;;;;21.05;5.22;;;11.30;99.90;;;;;;5076600;28;20147;-59
2021/10/25 04:50:37;;;;;;;28.38;5.53;;;11.30;99.90;;;;;;5084479;28;20079;-59
2021/10/25 04:53:07;;;;;;;20.05;4.93;;;11.30;99.90;;;;;;5085778;28;20082;-59
2021/10/25 04:55:35;;;;;;;22.80;4.32;;;11.30;99.90;;;;;;5085881;28;20078;-59
2021/10/25 04:58:02;;;;;;;17.48;4.43;;;11.40;99.90;;;;;;5081440;28;20162;-59
2021/10/25 05:00:29;;;;;;;24.27;3.88;;;11.40;99.90;;;;;;5084535;28;20555;-59
2021/10/25 05:02:58;;;;;;;22.45;5.05;;;11.40;99.90;;;;;;5080019;28;20050;-60
2021/10/25 05:05:25;;;;;;;21.35;5.63;;;11.50;99.90;;;;;;5082983;28;20067;-59
2021/10/25 05:07:53;;;;;;;18.85;4.78;;;11.50;99.90;;;;;;5079851;28;20123;-59
2021/10/25 05:10:19;;;;;;;18.30;4.82;;;11.50;99.90;;;;;;5082517;28;20126;-59
2021/10/25 05:12:46;;;;;;;19.08;5.28;;;11.50;99.90;;;;;;5081058;28;20067;-59
2021/10/25 05:15:13;;;;;;;17.42;4.82;;;11.50;99.90;;;;;;5081245;28;20047;-59
2021/10/25 05:17:40;;;;;;;22.23;5.57;;;11.50;99.90;;;;;;5081385;28;20094;-59
2021/10/25 05:20:08;;;;;;;19.52;5.00;;;11.50;99.90;;;;;;5084929;28;20127;-59
2021/10/25 05:22:34;;;;;;;18.00;4.38;;;11.50;99.90;;;;;;5080100;28;20345;-59
2021/10/25 05:25:07;;;;;;;18.20;5.10;;;11.50;99.90;;;;;;5081779;28;20477;-59
2021/10/25 05:27:34;;;;;;;26.15;4.78;;;11.50;99.90;;;;;;5082195;28;20439;-60
2021/10/25 05:30:05;;;;;;;15.32;4.35;;;11.60;99.90;;;;;;5079047;28;20142;-59
2021/10/25 05:32:32;;;;;;;19.85;4.32;;;11.60;99.90;;;;;;5078554;28;20047;-59
2021/10/25 05:34:58;;;;;;;23.33;4.47;;;11.60;99.90;;;;;;5078490;28;20050;-59
2021/10/25 05:37:26;;;;;;;30.45;4.78;;;11.60;99.90;;;;;;5078532;28;20690;-59
2021/10/25 05:39:55;;;;;;;16.17;4.60;;;11.60;99.90;;;;;;5078956;28;20048;-59
2021/10/25 05:42:22;;;;;;;22.73;4.20;;;11.60;99.90;;;;;;5075488;28;20127;-59
2021/10/25 05:44:49;;;;;;;21.58;4.20;;;11.60;99.90;;;;;;5077405;28;20123;-59
2021/10/25 05:47:16;;;;;;;24.92;5.28;;;11.60;99.90;;;;;;5075990;28;20142;-59
2021/10/25 05:49:43;;;;;;;19.20;5.35;;;11.60;99.90;;;;;;5078165;28;20460;-59
2021/10/25 05:52:10;;;;;;;20.83;4.85;;;11.60;99.90;;;;;;5078963;28;20135;-57
2021/10/25 05:54:37;;;;;;;14.18;3.50;;;11.60;99.90;;;;;;5076207;28;20749;-58
2021/10/25 05:57:06;;;;;;;20.02;4.22;;;11.60;99.90;;;;;;5078945;28;20066;-57
2021/10/25 05:59:34;;;;;;;25.48;4.40;;;11.60;99.90;;;;;;5074203;28;20127;-57
2021/10/25 06:02:12;;;;;;;19.80;4.57;;;11.60;99.90;;;;;;5078297;28;20202;-60
2021/10/25 06:04:39;;;;;;;20.70;4.07;;;11.60;99.90;;;;;;5073528;28;20044;-57
2021/10/25 06:07:05;;;;;;;18.27;4.20;;;11.60;99.90;;;;;;5078733;28;20138;-60
2021/10/25 06:09:36;;;;;;;16.58;3.65;;;11.60;99.90;;;;;;5078362;28;20135;-57
2021/10/25 06:12:07;;;;;;;27.08;5.00;;;11.60;99.90;;;;;;5077799;28;20056;-58
2021/10/25 06:14:38;;;;;;;19.83;3.75;;;11.60;99.90;;;;;;5074919;28;20062;-58
2021/10/25 06:17:20;;;;;;;21.88;5.65;;;11.50;99.90;;;;;;5077670;28;20084;-58
2021/10/25 06:19:47;;;;;;;19.77;3.65;;;11.50;99.90;;;;;;5074958;28;20047;-57
2021/10/25 06:22:18;;;;;;;26.42;5.47;;;11.50;99.90;;;;;;5078723;28;20567;-58
2021/10/25 06:24:48;;;;;;;27.90;6.78;;;11.50;99.90;;;;;;5078753;28;20051;-58
2021/10/25 06:27:15;;;;;;;25.05;5.65;;;11.50;99.90;;;;;;5078190;28;20125;-58
2021/10/25 06:29:42;;;;;;;25.55;4.60;;;11.50;99.90;;;;;;5077568;28;20132;-58
2021/10/25 06:32:09;;;;;;;16.88;4.05;;;11.50;99.90;;;;;;5074641;28;20102;-58
2021/10/25 06:34:44;;;;;;;20.67;3.78;;;11.40;99.90;;;;;;5078265;28;20048;-60
2021/10/25 06:37:10;;;;;;;18.60;4.78;;;11.40;99.90;;;;;;5078082;28;20130;-58
2021/10/25 06:39:39;;;;;;;26.73;5.80;;;11.40;99.90;;;;;;5078508;28;20075;-58
2021/10/25 06:42:06;;;;;;;20.10;5.13;;;11.40;99.90;;;;;;5078050;28;20075;-58
2021/10/25 06:44:52;;;;;;;23.35;4.22;;;11.40;99.90;;;;;;5077638;28;20044;-59
2021/10/25 06:47:20;;;;;;;13.18;3.00;;;11.40;99.90;;;;;;5077497;28;20086;-58
2021/10/25 06:49:47;;;;;;;20.65;4.25;;;11.40;99.90;;;;;;5078653;28;20083;-58
2021/10/25 06:52:16;;;;;;;12.10;3.17;;;11.40;99.90;;;;;;5078158;28;20090;-58
2021/10/25 06:54:43;;;;;;;21.55;4.45;;;11.40;99.90;;;;;;5078218;28;20124;-58
2021/10/25 06:57:10;;;;;;;34.15;9.60;;;11.40;99.90;;;;;;5077185;28;20142;-58
2021/10/25 06:59:39;;;;;;;16.42;4.35;;;11.40;99.90;;;;;;5077354;28;20478;-58
2021/10/25 07:02:06;;;;;;;26.13;4.93;;;11.40;99.90;;;;;;5077375;28;20362;-59
2021/10/25 07:04:33;;;;;;;21.45;3.88;;;11.50;99.90;;;;;;5074059;28;20516;-58
2021/10/25 07:07:00;;;;;;;16.45;5.28;;;11.50;99.90;;;;;;5076889;28;20132;-58
2021/10/25 07:09:27;;;;;;;18.48;5.93;;;11.50;99.90;;;;;;5075606;28;20072;-58
2021/10/25 07:11:54;;;;;;;23.30;5.57;;;11.50;99.90;;;;;;5077305;28;20531;-58
2021/10/25 07:14:32;;;;;;;20.08;3.58;;;11.50;99.90;;;;;;5077079;28;20121;-58
2021/10/25 07:17:14;;;;;;;21.00;4.25;;;11.60;99.90;;;;;;5075792;28;20051;-58
2021/10/25 08:01:11;;;;;;;21.95;4.20;;;12.30;99.90;;;;;;5078541;28;20151;-59
2021/10/25 08:07:02;;;;;;;18.90;4.15;;;12.50;99.90;;;;;;5062680;28;20444;-59
2021/10/25 08:11:32;;;;;;;14.73;3.50;;;12.70;99.90;;;;;;5074819;28;20179;-59
2021/10/25 08:14:13;;;;;;;20.38;2.92;;;12.80;99.90;;;;;;5075015;28;20052;-59
2021/10/25 08:19:32;;;;;;;21.23;3.10;;;12.90;99.90;;;;;;5074105;28;20144;-59
2021/10/25 08:22:03;;;;;;;15.45;2.92;;;12.90;99.90;;;;;;5079518;28;20178;-59
2021/10/25 08:24:35;;;;;;;15.70;3.15;;;12.90;99.90;;;;;;5076106;28;20101;-59
2021/10/25 08:27:03;;;;;;;10.30;2.47;;;13.00;99.90;;;;;;5082022;28;20507;-59
2021/10/25 08:29:30;;;;;;;16.85;3.35;;;13.00;99.90;;;;;;5080850;28;20055;-59
2021/10/25 08:39:48;;;;;;;15.80;3.53;;;13.20;99.90;;;;;;5082454;28;20094;-59
2021/10/25 08:42:26;;;;;;;26.02;4.03;;;13.20;99.90;;;;;;5081073;28;20119;-59
2021/10/25 08:48:02;;;;;;;14.93;3.45;;;13.40;99.90;;;;;;5096434;28;20509;-59
2021/10/25 08:50:30;;;;;;;15.05;3.15;;;13.50;99.90;;;;;;5091319;28;20082;-59
2021/10/25 08:52:57;;;;;;;27.02;4.45;;;13.60;99.90;;;;;;5088454;28;20044;-59
2021/10/25 08:55:24;;;;;;;13.52;3.67;;;13.70;99.90;;;;;;5079686;28;20116;-59
2021/10/25 08:57:51;;;;;;;14.68;3.70;;;13.70;99.90;;;;;;5079946;28;20406;-59
2021/10/25 09:00:35;;;;;;;10.90;2.70;;;13.80;99.90;;;;;;5081976;28;20456;-59
2021/10/25 09:03:06;;;;;;;13.10;2.60;;;13.90;99.90;;;;;;5076678;28;20055;-59
2021/10/25 09:05:33;;;;;;;14.27;3.67;;;13.90;99.90;;;;;;5081122;28;20124;-60
2021/10/25 09:08:05;;;;;;;16.63;3.05;;;14.00;99.90;;;;;;5071903;28;20135;-59
2021/10/25 09:10:36;;;;;;;13.57;3.10;;;14.10;99.90;;;;;;5079547;28;20048;-58
2021/10/25 09:13:06;;;;;;;18.85;3.28;;;14.30;99.90;;;;;;5082000;28;20438;-59
2021/10/25 09:15:35;;;;;;;12.65;3.70;;;14.50;99.90;;;;;;5081767;28;20052;-59
2021/10/25 09:18:18;;;;;;;24.60;3.92;;;14.60;99.90;;;;;;5081531;28;20135;-59
2021/10/25 09:21:05;;;;;;;14.15;3.13;;;14.80;99.90;;;;;;5082291;28;20078;-59
2021/10/25 09:23:35;;;;;;;14.60;3.80;;;14.80;98.80;;;;;;5079989;28;20056;-59
2021/10/25 09:26:03;;;;;;;9.77;3.00;;;14.80;99.40;;;;;;5080836;28;20076;-59
2021/10/25 09:28:35;;;;;;;11.27;3.13;;;14.90;99.40;;;;;;5078631;28;20079;-59
2021/10/25 09:31:13;;;;;;;11.88;3.10;;;15.00;99.10;;;;;;5079466;28;20075;-60
2021/10/25 09:33:42;;;;;;;;;;;15.00;98.60;;;;;;5078856;28;20051;-59
2021/10/25 09:36:12;;;;;;;16.20;2.95;;;15.10;97.00;;;;;;5079760;28;20018;-59
2021/10/25 09:41:53;;;;;;;8.63;1.70;;;15.00;96.90;;;;;;5081002;28;20062;-59
2021/10/25 09:49:57;;;;;;;5.95;2.22;;;14.90;96.20;;;;;;5080148;28;20535;-60
2021/10/25 09:52:32;;;;;;;8.55;1.95;;;14.90;96.80;;;;;;5078487;28;20515;-60
2021/10/25 09:55:03;;;;;;;11.23;2.28;;;15.00;95.10;;;;;;5079169;28;20527;-60
2021/10/25 10:00:16;;;;;;;11.45;2.78;;;15.20;95.30;;;;;;5078279;28;20139;-60
2021/10/25 10:02:43;;;;;;;7.80;1.85;;;15.30;95.50;;;;;;5079660;28;20126;-58
2021/10/25 10:05:14;;;;;;;9.50;2.53;;;15.40;96.10;;;;;;5077862;28;20900;-58
2021/10/25 10:07:40;;;;;;;8.05;2.05;;;15.30;95.60;;;;;;5079652;28;20071;-58
2021/10/25 10:10:09;;;;;;;9.38;2.63;;;15.30;94.90;;;;;;5083129;28;20075;-58
2021/10/25 10:12:42;;;;;;;6.40;2.10;;;15.40;96.10;;;;;;5083379;28;20920;-57
2021/10/25 10:15:11;;;;;;;7.65;2.05;;;15.40;95.20;;;;;;5082654;28;20452;-58
2021/10/25 10:17:56;;;;;;;9.35;2.03;;;15.40;95.30;;;;;;5082111;28;20135;-57
2021/10/25 10:20:31;;;;;;;5.85;2.28;;;15.50;95.20;;;;;;5066682;28;20136;-58
2021/10/25 10:23:05;;;;;;;9.52;1.65;;;15.40;94.30;;;;;;5083058;28;20113;-59
2021/10/25 10:25:46;;;;;;;4.43;1.25;;;15.50;93.60;;;;;;5082353;28;20052;-58
2021/10/25 10:28:14;;;;;;;7.43;1.50;;;15.50;94.20;;;;;;5080834;28;20589;-58
2021/10/25 10:30:53;;;;;;;4.30;1.35;;;15.50;93.30;;;;;;5062359;28;20080;-58
2021/10/25 10:33:36;;;;;;;4.88;1.23;;;15.50;92.50;;;;;;5076537;28;20040;-58
2021/10/25 10:36:13;;;;;;;4.63;1.33;;;15.50;92.80;;;;;;5079999;28;20471;-58
2021/10/25 10:39:07;;;;;;;3.90;1.40;;;15.50;93.70;;;;;;5079075;28;20588;-58
2021/10/25 10:41:38;;;;;;;;;;;15.60;93.40;;;;;;5072207;28;20130;-58
2021/10/25 10:44:05;;;;;;;6.95;1.60;;;15.70;92.70;;;;;;5077642;28;19976;-58
2021/10/25 10:47:08;;;;;;;5.05;1.70;;;15.80;93.40;;;;;;5077399;28;20052;-58
2021/10/25 10:49:48;;;;;;;6.25;1.55;;;15.80;92.30;;;;;;5072972;28;20044;-58
2021/10/25 10:52:35;;;;;;;10.00;1.85;;;15.90;93.40;;;;;;5076360;28;20189;-58
2021/10/25 10:55:27;;;;;;;4.93;1.33;;;16.00;93.70;;;;;;5079393;28;20113;-58
2021/10/25 11:00:23;;;;;;;9.10;1.73;;;16.30;92.60;;;;;;5079523;28;20445;-58
2021/10/25 11:02:54;;;;;;;7.35;1.27;;;16.40;92.50;;;;;;5078651;28;20071;-58
2021/10/25 11:05:36;;;;;;;5.95;2.03;;;16.40;92.20;;;;;;5079866;28;20102;-58
2021/10/25 11:08:24;;;;;;;4.97;1.55;;;16.40;91.00;;;;;;5079025;28;20094;-59
2021/10/25 11:11:01;;;;;;;11.43;2.50;;;16.40;91.10;;;;;;5076310;28;20080;-58
2021/10/25 11:13:31;;;;;;;7.95;1.73;;;16.60;91.10;;;;;;5073795;28;20235;-58
2021/10/25 11:16:08;;;;;;;6.40;1.45;;;16.70;91.20;;;;;;5075069;28;20100;-59
2021/10/25 11:18:39;;;;;;;6.38;2.00;;;16.60;90.10;;;;;;5074262;28;20058;-59
2021/10/25 11:21:32;;;;;;;7.45;1.95;;;16.50;90.40;;;;;;5077870;28;20113;-59
2021/10/25 11:24:10;;;;;;;8.20;2.05;;;16.40;90.80;;;;;;5078108;28;20135;-59
2021/10/25 11:26:43;;;;;;;7.28;1.90;;;16.30;89.90;;;;;;5080371;28;20084;-59
2021/10/25 11:29:09;;;;;;;7.30;1.95;;;16.30;89.80;;;;;;5078070;28;20091;-59
2021/10/25 11:31:44;;;;;;;6.45;2.10;;;16.40;90.80;;;;;;5081093;28;20105;-59
2021/10/25 11:34:19;;;;;;;6.05;1.50;;;16.60;89.40;;;;;;5080513;28;20054;-59
2021/10/25 11:36:59;;;;;;;5.05;1.85;;;16.80;90.20;;;;;;5079846;28;20518;-59
2021/10/25 11:39:40;;;;;;;6.68;2.08;;;17.10;89.20;;;;;;5079492;28;20139;-59
2021/10/25 11:42:15;;;;;;;7.60;2.05;;;17.30;87.00;;;;;;5078846;28;20445;-60
2021/10/25 11:44:46;;;;;;;5.45;1.83;;;17.10;87.00;;;;;;5081411;28;20134;-60
2021/10/25 11:47:24;;;;;;;12.07;2.38;;;17.00;88.00;;;;;;5077473;28;20497;-60
2021/10/25 11:49:57;;;;;;;6.13;2.25;;;16.90;88.00;;;;;;5074666;28;20099;-60
2021/10/25 11:52:24;;;;;;;8.02;2.45;;;16.90;88.70;;;;;;5062103;28;20520;-60
2021/10/25 11:54:52;;;;;;;7.82;1.98;;;17.00;90.20;;;;;;5077480;28;20172;-60
2021/10/25 11:57:23;;;;;;;5.82;2.03;;;17.00;90.10;;;;;;5080728;28;20136;-60
2021/10/25 12:00:02;;;;;;;4.97;1.63;;;17.00;90.00;;;;;;5076495;28;20083;-60
2021/10/25 12:02:29;;;;;;;11.32;2.85;;;16.90;90.10;;;;;;5073560;28;20465;-60
2021/10/25 12:04:56;;;;;;;9.02;1.83;;;17.00;91.30;;;;;;5067462;28;20132;-60
2021/10/25 12:07:23;;;;;;;7.00;1.77;;;16.90;91.30;;;;;;5078742;28;20097;-58
2021/10/25 12:10:04;;;;;;;7.45;2.33;;;16.80;92.40;;;;;;5081361;28;20669;-60
2021/10/25 12:12:31;;;;;;;10.32;2.50;;;16.50;91.70;;;;;;5080419;28;20586;-60
2021/10/25 12:15:01;;;;;;;6.40;1.48;;;16.20;92.20;;;;;;5080273;28;20056;-60
2021/10/25 12:17:36;;;;;;;7.22;1.70;;;16.10;93.00;;;;;;5078937;28;20040;-59
2021/10/25 12:20:05;;;;;;;5.18;1.85;;;16.10;93.30;;;;;;5081424;28;20503;-60
2021/10/25 12:22:33;;;;;;;5.97;1.38;;;16.10;93.40;;;;;;5082286;28;20041;-60
2021/10/25 12:25:00;;;;;;;5.80;2.15;;;16.00;93.10;;;;;;5081478;28;20080;-59
2021/10/25 12:27:40;;;;;;;6.80;1.65;;;16.10;93.80;;;;;;5081290;28;20131;-59
2021/10/25 12:30:08;;;;;;;6.63;1.77;;;16.20;93.60;;;;;;5079704;28;20044;-58
2021/10/25 12:32:48;;;;;;;7.40;1.35;;;16.20;93.20;;;;;;5080892;28;20079;-58
2021/10/25 12:35:15;;;;;;;7.45;2.33;;;16.40;93.40;;;;;;5079908;28;20131;-58
2021/10/25 12:37:42;;;;;;;7.85;1.77;;;16.50;93.10;;;;;;5081324;28;20102;-58
2021/10/25 12:40:18;;;;;;;7.22;1.85;;;16.40;93.30;;;;;;5080993;28;20136;-58
2021/10/25 12:42:46;;;;;;;8.25;2.67;;;16.30;93.80;;;;;;5078762;28;20119;-58
2021/10/25 12:45:19;;;;;;;10.13;1.83;;;16.00;94.40;;;;;;5079678;28;20075;-58
2021/10/25 12:47:47;;;;;;;6.88;2.05;;;15.70;96.40;;;;;;5080837;28;20084;-58
2021/10/25 12:50:15;;;;;;;10.90;2.08;;;15.50;96.30;;;;;;5080196;28;20075;-58
2021/10/25 12:52:44;;;;;;;6.63;1.70;;;15.30;96.40;;;;;;5081478;28;20344;-60
2021/10/25 12:55:11;;;;;;;8.85;1.92;;;15.20;96.10;;;;;;5080085;28;20079;-58
2021/10/25 12:57:39;;;;;;;6.28;1.80;;;15.20;96.50;;;;;;5079707;28;20052;-58
2021/10/25 13:00:09;;;;;;;8.90;2.45;;;15.30;96.60;;;;;;5079041;28;20139;-58
2021/10/25 13:02:47;;;;;;;3.80;1.80;;;15.40;96.80;;;;;;5079042;28;20048;-58
2021/10/25 13:05:19;;;;;;;5.25;1.75;;;15.70;97.20;;;;;;5080651;28;20052;-58
2021/10/25 13:07:56;;;;;;;8.23;3.78;;;15.80;94.10;;;;;;5082805;28;20036;-58
2021/10/25 13:10:31;;;;;;;8.90;1.83;;;16.00;94.30;;;;;;5066993;28;20446;-58
2021/10/25 13:12:58;;;;;;;7.68;1.60;;;16.20;94.20;;;;;;5084075;28;20160;-58
2021/10/25 13:15:25;;;;;;;7.72;1.88;;;16.50;94.70;;;;;;5082793;28;20055;-58
2021/10/25 13:17:53;;;;;;;5.53;1.85;;;16.80;94.20;;;;;;5083636;28;20480;-58
2021/10/25 13:20:22;;;;;;;4.53;1.55;;;17.00;93.80;;;;;;5084841;28;20193;-58
2021/10/25 13:22:49;;;;;;;7.95;2.05;;;17.10;93.70;;;;;;5083195;28;20131;-58
2021/10/25 13:25:20;;;;;;;5.47;1.23;;;17.30;93.40;;;;;;5085058;28;20052;-58
2021/10/25 13:27:49;;;;;;;10.52;1.48;;;17.40;93.20;;;;;;5083038;28;20087;-58
2021/10/25 13:30:17;;;;;;;6.57;1.65;;;17.60;92.50;;;;;;5083255;28;20067;-58
2021/10/25 13:32:44;;;;;;;11.02;1.80;;;17.70;92.20;;;;;;5083864;28;20056;-58
2021/10/25 13:35:11;;;;;;;6.85;1.55;;;17.80;91.80;;;;;;5084655;28;20048;-58
2021/10/25 13:37:38;;;;;;;6.20;1.17;;;17.60;91.70;;;;;;5084598;28;20084;-59
2021/10/25 13:40:05;;;;;;;6.55;1.75;;;17.80;92.20;;;;;;5083588;28;20502;-58
2021/10/25 13:42:33;;;;;;;6.40;1.40;;;18.40;92.30;;;;;;5084041;28;20127;-59
2021/10/25 13:45:00;;;;;;;5.43;1.75;;;18.90;90.90;;;;;;5083230;28;20468;-59
2021/10/25 13:47:26;;;;;;;7.53;1.52;;;19.50;91.50;;;;;;5083394;28;20098;-59
2021/10/25 13:49:55;;;;;;;5.22;1.60;;;19.80;87.50;;;;;;5083768;28;20075;-59
2021/10/25 13:52:23;;;;;;;6.72;1.95;;;20.10;85.70;;;;;;5083926;28;20091;-59
2021/10/25 13:54:50;;;;;;;6.97;2.13;;;20.10;85.00;;;;;;5084299;28;20127;-59
2021/10/25 13:57:22;;;;;;;7.88;2.42;;;20.30;85.20;;;;;;5084143;28;20696;-59
2021/10/25 13:59:49;;;;;;;5.45;2.20;;;20.50;84.20;;;;;;5081828;28;20500;-59
2021/10/25 14:02:17;;;;;;;6.38;2.08;;;20.70;78.90;;;;;;5064844;28;20465;-59
2021/10/25 14:04:49;;;;;;;5.63;1.80;;;20.70;82.70;;;;;;5083938;28;20147;-59
2021/10/25 14:07:19;;;;;;;6.20;1.77;;;21.00;82.40;;;;;;5082352;28;20109;-59
2021/10/25 14:10:00;;;;;;;6.68;2.67;;;20.90;76.00;;;;;;5083656;28;20083;-59
2021/10/25 14:12:30;;;;;;;6.20;1.65;;;21.10;81.60;;;;;;5084363;28;20098;-60
2021/10/25 14:17:41;;;;;;;6.72;1.60;;;21.60;78.00;;;;;;5082928;28;20047;-59
2021/10/25 14:20:08;;;;;;;5.05;1.90;;;21.70;75.60;;;;;;5083247;28;20052;-58
2021/10/25 14:22:35;;;;;;;7.28;2.00;;;21.50;72.40;;;;;;5083625;28;20553;-59
2021/10/25 14:25:02;;;;;;;4.43;1.50;;;21.40;73.20;;;;;;5083953;28;20091;-59
2021/10/25 14:27:28;;;;;;;5.25;1.88;;;21.60;71.30;;;;;;5083371;28;20075;-59
2021/10/25 14:29:56;;;;;;;5.22;2.13;;;21.60;72.70;;;;;;5082267;28;20444;-59
2021/10/25 14:32:22;;;;;;;4.88;1.85;;;21.80;73.20;;;;;;5082046;28;20083;-59
2021/10/25 14:34:49;;;;;;;3.85;1.30;;;21.80;68.30;;;;;;5083174;28;20126;-59
2021/10/25 14:37:16;;;;;;;4.07;1.95;;;21.80;70.90;;;;;;5083196;28;20054;-59